Current Weather

Ames Muni

Ames, Iowa (KAMW)

Report from: Wednesday, August 17, 2022 7:53 PM CDT
Current time: Wednesday, August 17, 2022 8:21 PM CDT

Nearby weather
Weather history
Weather forecast

Temperature23.3°C (73.9°F)
Dew point16.7°C (62.1°F)
Winds Calm
Visibility10 mi. (16.1 km)
Clouds Sky clear
Altimeter30.09 in.Hg (1019 mB)
Relative humidity66 %
Density altitude1,034 ft. (315 m)
Sea-level pressure101.8 kPa (1018 mB, 30.07 in.Hg)
Remarks Fully automated report
System requires maintenance
Automated weather observing station with precipitation discriminator
Flight conditions Visual Meteorological Conditions
Raw dataKAMW 180053Z AUTO 00000KT 10SM CLR 23/17 A3009 RMK AO2 SLP182 T02330167 $
An error has occurred. This application may no longer respond until reloaded. Reload 🗙